Nichols, Wisconsin
Current Conditions -  °F | °C
As of 2:55 PM on Saturday 25 Oct 2014 (Local Time) from KCLI Reporting Station
Clear Clear  
Wind Chill: 63°   Ceiling: Unl
Heat Index: 63°   Visibility: 10mi
Dew Point: 23°   Wind: 24mph
Humidity: 22%   Direction: 290°WNW
Pressure: 29.84"   Gusts: 29mph
Location:  44.56°N, 88.46°W
Report Text: KCLI 251955Z AUTO 29021G25KT 10SM CLR 17/M05 A2984 RMK AO2
Loading
Personal Weather Stations






























Interactive Weather Map
Tropical Storm Tracking
New forecast layout! Learn more

10-Day Weather Forecast

Advertisements
Track Severe Weather on mobile